»·PEaware :: UAL384 KSAN-KSFO

UAL384 :: KSAN-KSFO

FLIGHT INFORMATION

Flight Status: Arrived
Operator:
United Airlines
More flights by this operator :: More flights under this callsign
Pilot: Saso K. (7898)
Aircraft: BOEING 737-300
(B733)
More flights by this aircraft type
Origin: KSAN San Diego Intl-Lindbergh
United States
Destination: KSFO San Francisco Intl
United States
More flights between these airports :: More routes between these airports
Route: +PEBLE6 SXC VTU RZS STOKD SERFR SERFR2
File this flight plan on PilotEdge
Remarks:
Altitude:
(Current/Filed)
34,000ft
Speed:
(Current/Filed)
427kts
Departed: 20-Dec-16 04:18 PM
Arrived: 20-Dec-16 05:28 PM
Distance/Time
Traveled:
388nm/1:09
Distance/Time
To Go:
Arrived

Flight Plot

Page will automatically refresh every two minutes.


Map Options




Map Legend


Flown Route
Filed Route
Departure Airport
Arrival Airport
Navaid (VOR, NDB)
Fix

Horizontal Profiles

Position Reports

Time Latitude Longitude Heading Altitude Ground
Speed
20-Dec-16 15:35 32.733750 -117.203540 270 17ft 0kts
20-Dec-16 15:36 32.733750 -117.203539 270 17ft 0kts
20-Dec-16 15:37 32.733750 -117.203539 270 17ft 0kts
20-Dec-16 15:38 32.733750 -117.203539 270 17ft 0kts
20-Dec-16 15:39 32.733750 -117.203539 270 17ft 0kts
20-Dec-16 15:40 32.733750 -117.203539 270 17ft 0kts
20-Dec-16 15:41 32.733750 -117.203539 270 17ft 0kts
20-Dec-16 15:42 32.733750 -117.203539 270 17ft 0kts
20-Dec-16 15:43 32.733750 -117.203539 270 17ft 0kts
20-Dec-16 15:44 32.733750 -117.203539 270 17ft 0kts
20-Dec-16 15:45 32.733750 -117.203539 270 17ft 0kts
20-Dec-16 15:46 32.733750 -117.203539 270 17ft 0kts
20-Dec-16 15:47 32.733750 -117.203539 270 17ft 0kts
20-Dec-16 15:48 32.733750 -117.203539 270 17ft 0kts
20-Dec-16 15:49 32.733750 -117.203539 270 17ft 0kts
20-Dec-16 15:50 32.733750 -117.203539 270 17ft 0kts
20-Dec-16 15:51 32.733750 -117.203539 270 17ft 0kts
20-Dec-16 15:52 32.733750 -117.203539 270 17ft 0kts
20-Dec-16 15:53 32.733750 -117.203539 270 17ft 0kts
20-Dec-16 15:54 32.733750 -117.203539 270 17ft 0kts
20-Dec-16 15:55 32.733750 -117.203539 270 17ft 0kts
20-Dec-16 15:56 32.733750 -117.203539 270 17ft 0kts
20-Dec-16 15:57 32.733750 -117.203140 270 17ft 2kts
20-Dec-16 15:58 32.733685 -117.202757 12 17ft 2kts
20-Dec-16 15:59 32.734252 -117.202581 12 17ft 0kts
20-Dec-16 16:00 32.734252 -117.202581 12 17ft 0kts
20-Dec-16 16:01 32.734252 -117.202581 12 17ft 0kts
20-Dec-16 16:02 32.734252 -117.202581 12 17ft 0kts
20-Dec-16 16:03 32.734252 -117.202581 12 17ft 0kts
20-Dec-16 16:04 32.735030 -117.202369 17 17ft 7kts
20-Dec-16 16:05 32.734545 -117.198014 105 17ft 19kts
20-Dec-16 16:06 32.733064 -117.191920 106 20ft 20kts
20-Dec-16 16:07 32.731389 -117.184948 106 17ft 23kts
20-Dec-16 16:08 32.729712 -117.178089 106 20ft 18kts
20-Dec-16 16:09 32.730054 -117.175536 328 24ft 4kts
20-Dec-16 16:10 32.735926 -117.199481 286 233ft 164kts
20-Dec-16 16:11 32.759024 -117.247889 307 2410ft 203kts
20-Dec-16 16:12 32.796674 -117.310717 306 4501ft 262kts
20-Dec-16 16:13 32.837787 -117.382418 306 7427ft 282kts
20-Dec-16 16:14 32.889932 -117.448529 329 10107ft 299kts
20-Dec-16 16:15 32.968688 -117.507087 329 11807ft 359kts
20-Dec-16 16:16 33.034665 -117.596041 304 14591ft 374kts
20-Dec-16 16:17 33.093571 -117.697991 303 17264ft 385kts
20-Dec-16 16:18 33.119460 -117.740865 304 18313ft 389kts
20-Dec-16 16:19 33.177925 -117.832438 302 20324ft 400kts
20-Dec-16 16:20 33.221779 -117.953202 288 22416ft 407kts
20-Dec-16 16:21 33.263196 -118.077669 288 24352ft 416kts
20-Dec-16 16:22 33.305819 -118.206375 287 26149ft 426kts
20-Dec-16 16:23 33.349140 -118.337739 287 27799ft 434kts
20-Dec-16 16:24 33.409293 -118.455704 324 29964ft 440kts
20-Dec-16 16:25 33.508866 -118.534779 321 31708ft 434kts
20-Dec-16 16:26 33.605298 -118.616269 320 33081ft 433kts
20-Dec-16 16:27 33.697591 -118.694528 319 34186ft 435kts
20-Dec-16 16:28 33.793673 -118.776199 319 34160ft 429kts
20-Dec-16 16:29 33.889253 -118.857722 321 34153ft 441kts
20-Dec-16 16:30 33.983652 -118.943496 310 34176ft 438kts
20-Dec-16 16:31 34.055316 -119.053599 308 34166ft 425kts
20-Dec-16 16:32 34.116199 -119.147681 307 34160ft 426kts
20-Dec-16 16:33 34.187555 -119.259538 307 34169ft 425kts
20-Dec-16 16:34 34.258600 -119.371253 308 34178ft 426kts
20-Dec-16 16:35 34.330152 -119.484132 307 34175ft 426kts
20-Dec-16 16:36 34.401284 -119.596694 307 34173ft 425kts
20-Dec-16 16:37 34.465711 -119.698948 307 34174ft 425kts
20-Dec-16 16:38 34.540011 -119.803457 320 34167ft 425kts
20-Dec-16 16:39 34.630185 -119.896549 319 34186ft 426kts
20-Dec-16 16:40 34.718150 -119.990008 319 34177ft 426kts
20-Dec-16 16:41 34.791938 -120.068631 318 34184ft 426kts
20-Dec-16 16:42 34.880179 -120.162909 318 34191ft 426kts
20-Dec-16 16:43 34.982641 -120.272738 321 34222ft 420kts
20-Dec-16 16:44 35.052160 -120.347499 320 34190ft 393kts
20-Dec-16 16:45 35.112666 -120.412664 320 34185ft 397kts
20-Dec-16 16:46 35.190572 -120.496792 320 34206ft 398kts
20-Dec-16 16:47 35.272779 -120.585812 320 34199ft 398kts
20-Dec-16 16:48 35.354631 -120.674690 320 34200ft 398kts
20-Dec-16 16:49 35.436079 -120.763368 320 34211ft 398kts
20-Dec-16 16:50 35.519788 -120.850729 324 34212ft 398kts
20-Dec-16 16:51 35.607701 -120.932179 324 34234ft 400kts
20-Dec-16 16:52 35.694895 -121.013247 324 34229ft 398kts
20-Dec-16 16:53 35.781829 -121.094307 324 34228ft 395kts
20-Dec-16 16:54 35.868594 -121.175439 323 34227ft 392kts
20-Dec-16 16:55 35.954435 -121.255934 323 34226ft 391kts
20-Dec-16 16:56 36.040455 -121.336825 323 34227ft 392kts
20-Dec-16 16:57 36.116681 -121.402505 328 34231ft 392kts
20-Dec-16 16:58 36.162074 -121.437979 328 34223ft 393kts
20-Dec-16 16:59 36.254334 -121.510053 327 31363ft 413kts
20-Dec-16 17:00 36.350483 -121.585362 327 28615ft 403kts
20-Dec-16 17:01 36.442709 -121.657812 326 26224ft 390kts
20-Dec-16 17:02 36.532656 -121.727817 326 23885ft 378kts
20-Dec-16 17:03 36.619863 -121.796064 325 21613ft 369kts
20-Dec-16 17:04 36.704791 -121.863354 326 19382ft 361kts
20-Dec-16 17:05 36.794715 -121.910467 344 17312ft 354kts
20-Dec-16 17:06 36.890318 -121.938168 345 14892ft 355kts
20-Dec-16 17:07 36.984227 -121.966565 342 12811ft 345kts
20-Dec-16 17:08 37.073262 -122.000537 342 10942ft 332kts
20-Dec-16 17:09 37.123395 -122.020075 342 10209ft 313kts
20-Dec-16 17:10 37.194545 -122.047900 342 9773ft 270kts
20-Dec-16 17:11 37.263463 -122.074918 342 8220ft 274kts
20-Dec-16 17:12 37.332698 -122.102123 342 6775ft 268kts
20-Dec-16 17:13 37.400091 -122.127434 344 5560ft 252kts
20-Dec-16 17:14 37.464187 -122.151495 344 4392ft 234kts
20-Dec-16 17:15 37.524801 -122.171412 342 3209ft 219kts
20-Dec-16 17:16 37.557482 -122.229727 299 2190ft 206kts
20-Dec-16 17:17 37.580645 -122.284547 299 1287ft 154kts
20-Dec-16 17:18 37.599284 -122.328809 299 561ft 143kts
20-Dec-16 17:19 37.617129 -122.371285 299 13ft 115kts
20-Dec-16 17:20 37.622131 -122.385464 265 29ft 8kts
20-Dec-16 17:21 37.622084 -122.385872 253 29ft 4kts
20-Dec-16 17:22 37.622567 -122.389787 251 28ft 17kts
20-Dec-16 17:23 37.619902 -122.390952 119 30ft 13kts
20-Dec-16 17:24 37.618868 -122.388176 154 30ft 4kts
20-Dec-16 17:25 37.618641 -122.388055 158 30ft 0kts
20-Dec-16 17:26 37.618641 -122.388055 158 30ft 0kts

Navigation Log

Ident Type
1. KSAN Airport
2. MELDY Fix
3. PEBLE Fix
4. SXC Navaid
5. VTU Navaid
6. RZS Navaid
7. KSFO Airport